| time (UTC) | temp C | wind direction | speed KPH | gust KPH | rain 1hr cm | rain 24hr cm | rain mn cm | humidity % | barometer mb |
| 20260507203022 | 27 | 79 | 8.0 | 14.5 | 0.00 | 0.00 | 0.00 | 17 | 1009.2 |
| 20260507201514 | 27 | 58 | 0.0 | 12.9 | 0.00 | 0.00 | 0.00 | 18 | 1009.5 |
| 20260507200010 | 26 | 124 | 3.2 | 20.9 | 0.00 | 0.00 | 0.00 | 20 | 1009.9 |
| 20260507194508 | 25 | 1 | 9.7 | 19.3 | 0.00 | 0.00 | 0.00 | 21 | 1010.1 |
| 20260507193005 | 25 | 110 | 1.6 | 24.1 | 0.00 | 0.00 | 0.00 | 22 | 1010.5 |
| 20260507191501 | 24 | 100 | 8.0 | 24.1 | 0.00 | 0.00 | 0.00 | 24 | 1010.8 |
| 20260507190059 | 24 | 58 | 11.3 | 25.7 | 0.00 | 0.00 | 0.00 | 23 | 1011.0 |
| 20260507184557 | 23 | 89 | 6.4 | 20.9 | 0.00 | 0.00 | 0.00 | 26 | 1011.3 |
| 20260507183053 | 23 | 49 | 4.8 | 22.5 | 0.00 | 0.00 | 0.00 | 25 | 1011.5 |
| 20260507181553 | 23 | 70 | 16.1 | 25.7 | 0.00 | 0.00 | 0.00 | 25 | 1011.8 |
| 20260507180057 | 22 | 346 | 12.9 | 27.4 | 0.00 | 0.00 | 0.00 | 28 | 1012.0 |
| 20260507174602 | 22 | 51 | 8.0 | 22.5 | 0.00 | 0.00 | 0.00 | 27 | 1012.3 |
| 20260507173048 | 21 | 77 | 22.5 | 32.2 | 0.00 | 0.00 | 0.00 | 28 | 1012.5 |
| 20260507171558 | 21 | 77 | 16.1 | 25.7 | 0.00 | 0.00 | 0.00 | 29 | 1012.7 |
| 20260507170039 | 20 | 70 | 17.7 | 29.0 | 0.00 | 0.00 | 0.00 | 31 | 1012.8 |
| 20260507164545 | 20 | 86 | 19.3 | 30.6 | 0.00 | 0.00 | 0.00 | 32 | 1013.0 |
| 20260507163043 | 19 | 71 | 16.1 | 27.4 | 0.00 | 0.00 | 0.00 | 34 | 1013.1 |
| 20260507161540 | 19 | 70 | 17.7 | 32.2 | 0.00 | 0.00 | 0.00 | 34 | 1013.3 |
| 20260507160043 | 18 | 66 | 14.5 | 29.0 | 0.00 | 0.00 | 0.00 | 35 | 1013.6 |
| 20260507154531 | 18 | 66 | 19.3 | 29.0 | 0.00 | 0.00 | 0.00 | 36 | 1013.7 |
| 20260507153031 | 18 | 67 | 16.1 | 24.1 | 0.00 | 0.00 | 0.00 | 37 | 1013.8 |
| 20260507151529 | 18 | 127 | 3.2 | 9.7 | 0.00 | 0.00 | 0.00 | 33 | 1013.7 |
| 20260507150029 | 18 | 145 | 0.0 | 6.4 | 0.00 | 0.00 | 0.00 | 31 | 1013.8 |
| 20260507144533 | 18 | 148 | 0.0 | 4.8 | 0.00 | 0.00 | 0.00 | 29 | 1013.9 |
| 20260507143023 | 17 | 168 | 0.0 | 4.8 | 0.00 | 0.00 | 0.00 | 31 | 1013.8 |
| 20260507141522 | 16 | 148 | 0.0 | 12.9 | 0.00 | 0.00 | 0.00 | 34 | 1013.9 |
| 20260507140016 | 15 | 56 | 8.0 | 19.3 | 0.00 | 0.00 | 0.00 | 41 | 1013.9 |
| 20260507134512 | 14 | 29 | 14.5 | 25.7 | 0.00 | 0.00 | 0.00 | 42 | 1013.7 |
| 20260507133012 | 14 | 28 | 16.1 | 27.4 | 0.00 | 0.00 | 0.00 | 42 | 1013.6 |
| 20260507131506 | 13 | 18 | 12.9 | 25.7 | 0.00 | 0.00 | 0.00 | 45 | 1013.7 |
| 20260507130011 | 12 | 358 | 4.8 | 11.3 | 0.00 | 0.00 | 0.00 | 47 | 1013.9 |
| 20260507124504 | 12 | 21 | 6.4 | 11.3 | 0.00 | 0.00 | 0.00 | 47 | 1013.6 |
| 20260507123002 | 11 | 58 | 1.6 | 6.4 | 0.00 | 0.00 | 0.00 | 48 | 1013.4 |
| 20260507121601 | 11 | 320 | 1.6 | 4.8 | 0.00 | 0.00 | 0.00 | 43 | 1013.5 |
| 20260507120058 | 12 | 27 | 6.4 | 22.5 | 0.00 | 0.00 | 0.00 | 41 | 1013.2 |
| 20260507114612 | 12 | 32 | 12.9 | 22.5 | 0.00 | 0.00 | 0.00 | 41 | 1013.0 |
| 20260507113057 | 11 | 49 | 4.8 | 14.5 | 0.00 | 0.00 | 0.00 | 39 | 1012.9 |
| 20260507111554 | 11 | 339 | 6.4 | 16.1 | 0.00 | 0.00 | 0.00 | 37 | 1012.6 |
| 20260507110054 | 10 | 350 | 6.4 | 11.3 | 0.00 | 0.00 | 0.00 | 43 | 1012.6 |
| 20260507104556 | 8 | 319 | 3.2 | 6.4 | 0.00 | 0.00 | 0.00 | 50 | 1012.8 |
| 20260507103050 | 8 | 316 | 8.0 | 12.9 | 0.00 | 0.00 | 0.00 | 50 | 1012.8 |
| 20260507101550 | 7 | 328 | 6.4 | 11.3 | 0.00 | 0.00 | 0.00 | 56 | 1012.7 |
| 20260507100046 | 7 | 103 | 0.0 | 3.2 | 0.00 | 0.00 | 0.00 | 54 | 1012.5 |
| 20260507094543 | 8 | 231 | 0.0 | 3.2 | 0.00 | 0.00 | 0.00 | 52 | 1012.2 |
| 20260507093043 | 8 | 231 | 0.0 | 0.0 | 0.00 | 0.00 | 0.00 | 52 | 1012.2 |
| 20260507091543 | 8 | 231 | 0.0 | 1.6 | 0.00 | 0.00 | 0.00 | 51 | 1012.1 |
| 20260507090037 | 8 | 231 | 0.0 | 0.0 | 0.00 | 0.00 | 0.00 | 50 | 1011.9 |
| 20260507084537 | 9 | 231 | 0.0 | 1.6 | 0.00 | 0.00 | 0.00 | 47 | 1012.0 |
| 20260507083035 | 9 | 231 | 1.6 | 4.8 | 0.00 | 0.00 | 0.00 | 45 | 1011.9 |
| 20260507081534 | 10 | 234 | 3.2 | 6.4 | 0.00 | 0.00 | 0.00 | 47 | 1012.0 |
| 20260507080032 | 8 | 86 | 3.2 | 6.4 | 0.00 | 0.00 | 0.00 | 54 | 1012.0 |
| 20260507074529 | 10 | 239 | 0.0 | 6.4 | 0.00 | 0.00 | 0.00 | 46 | 1011.9 |
| 20260507073028 | 11 | 239 | 0.0 | 3.2 | 0.00 | 0.00 | 0.00 | 38 | 1012.0 |
| 20260507071522 | 11 | 239 | 0.0 | 1.6 | 0.00 | 0.00 | 0.00 | 38 | 1011.9 |
| 20260507070022 | 11 | 239 | 0.0 | 6.4 | 0.00 | 0.00 | 0.00 | 38 | 1011.8 |
| 20260507064520 | 11 | 314 | 0.0 | 1.6 | 0.00 | 0.00 | 0.00 | 39 | 1011.8 |
| 20260507063029 | 12 | 314 | 0.0 | 0.0 | 0.00 | 0.00 | 0.00 | 39 | 1011.7 |
| 20260507061514 | 12 | 314 | 0.0 | 0.0 | 0.00 | 0.00 | 0.00 | 36 | 1011.6 |
| 20260507060022 | 13 | 63 | 0.0 | 4.8 | 0.00 | 0.00 | 0.00 | 36 | 1011.5 |
| 20260507054512 | 13 | 276 | 0.0 | 1.6 | 0.00 | 0.00 | 0.00 | 32 | 1011.2 |
| 20260507053010 | 14 | 34 | 0.0 | 9.7 | 0.00 | 0.00 | 0.00 | 31 | 1011.2 |
| 20260507051509 | 14 | 226 | 0.0 | 1.6 | 0.00 | 0.00 | 0.00 | 32 | 1011.2 |
| 20260507050008 | 13 | 226 | 1.6 | 4.8 | 0.00 | 0.00 | 0.00 | 36 | 1011.2 |
| 20260507044507 | 13 | 227 | 0.0 | 1.6 | 0.00 | 0.00 | 0.00 | 38 | 1010.9 |
| 20260507043006 | 13 | 227 | 0.0 | 3.2 | 0.00 | 0.00 | 0.00 | 38 | 1010.7 |
| 20260507041505 | 14 | 227 | 0.0 | 1.6 | 0.00 | 0.00 | 0.00 | 39 | 1010.6 |
| 20260507040004 | 15 | 227 | 0.0 | 1.6 | 0.00 | 0.00 | 0.00 | 35 | 1010.4 |
| 20260507034510 | 17 | 108 | 0.0 | 1.6 | 0.00 | 0.00 | 0.00 | 28 | 1010.3 |
| 20260507033003 | 17 | 112 | 0.0 | 1.6 | 0.00 | 0.00 | 0.00 | 27 | 1010.1 |
| 20260507031503 | 18 | 112 | 0.0 | 1.6 | 0.00 | 0.00 | 0.00 | 25 | 1009.9 |
| 20260507030005 | 18 | 333 | 0.0 | 6.4 | 0.00 | 0.00 | 0.00 | 23 | 1009.7 |
| 20260507024503 | 19 | 319 | 0.0 | 1.6 | 0.00 | 0.00 | 0.00 | 22 | 1009.4 |
| 20260507023001 | 20 | 319 | 0.0 | 1.6 | 0.00 | 0.00 | 0.00 | 21 | 1009.1 |
| 20260507021501 | 21 | 319 | 0.0 | 8.0 | 0.00 | 0.00 | 0.00 | 19 | 1008.9 |
| 20260507020101 | 22 | 317 | 3.2 | 9.7 | 0.00 | 0.00 | 0.00 | 18 | 1008.7 |
| 20260507014603 | 22 | 316 | 4.8 | 16.1 | 0.00 | 0.00 | 0.00 | 17 | 1008.5 |
| 20260507013117 | 23 | 311 | 11.3 | 19.3 | 0.00 | 0.00 | 0.00 | 16 | 1008.5 |
| 20260507011604 | 23 | 320 | 8.0 | 16.1 | 0.00 | 0.00 | 0.00 | 16 | 1008.2 |
| 20260507010104 | 24 | 301 | 8.0 | 22.5 | 0.00 | 0.00 | 0.00 | 17 | 1008.0 |
| 20260507004554 | 24 | 274 | 8.0 | 19.3 | 0.00 | 0.00 | 0.00 | 16 | 1007.9 |
| 20260507003053 | 25 | 295 | 9.7 | 20.9 | 0.00 | 0.00 | 0.00 | 17 | 1007.8 |
| 20260507001555 | 24 | 304 | 9.7 | 25.7 | 0.00 | 0.00 | 0.00 | 17 | 1007.8 |
| 20260507000052 | 25 | 296 | 8.0 | 24.1 | 0.00 | 0.00 | 0.00 | 17 | 1007.8 |
| 20260506234551 | 25 | 278 | 14.5 | 30.6 | 0.00 | 0.00 | 0.00 | 16 | 1007.7 |
| 20260506233103 | 25 | 243 | 11.3 | 22.5 | 0.00 | 0.00 | 0.00 | 16 | 1007.7 |
| 20260506231549 | 25 | 283 | 11.3 | 27.4 | 0.00 | 0.00 | 0.00 | 16 | 1007.7 |
| 20260506230049 | 25 | 332 | 8.0 | 24.1 | 0.00 | 0.00 | 0.00 | 17 | 1007.6 |
| 20260506224546 | 25 | 297 | 17.7 | 29.0 | 0.00 | 0.00 | 0.00 | 17 | 1007.8 |
| 20260506223047 | 25 | 324 | 14.5 | 35.4 | 0.00 | 0.00 | 0.00 | 16 | 1007.8 |
| 20260506221553 | 24 | 332 | 11.3 | 27.4 | 0.00 | 0.00 | 0.00 | 18 | 1007.9 |
| 20260506220043 | 24 | 231 | 16.1 | 29.0 | 0.00 | 0.00 | 0.00 | 17 | 1007.9 |
| 20260506214541 | 24 | 251 | 16.1 | 41.8 | 0.00 | 0.00 | 0.00 | 17 | 1008.2 |
| 20260506213040 | 24 | 328 | 12.9 | 27.4 | 0.00 | 0.00 | 0.00 | 18 | 1008.3 |
| 20260506211540 | 24 | 303 | 8.0 | 27.4 | 0.00 | 0.00 | 0.00 | 17 | 1008.4 |
| 20260506210038 | 24 | 260 | 12.9 | 29.0 | 0.00 | 0.00 | 0.00 | 17 | 1008.6 |
| 20260506204538 | 23 | 292 | 19.3 | 29.0 | 0.00 | 0.00 | 0.00 | 17 | 1008.9 |